Time;durP1;ratioP1;P1;durP2;ratioP2;P2;SDS_P1;SDS_P2;PMS_P1;PMS_P2;Temp;Humidity;BMP_temperature;BMP_pressure;BME280_temperature;BME280_humidity;BME280_pressure;Samples;Min_cycle;Max_cycle;Signal;HPM_P1;HPM_P2
2023/10/14 00:01:06;;;;;;;6.90;1.23;;;13.20;99.90;;;;;;5049712;28;20048;-80
2023/10/14 00:03:35;;;;;;;10.77;1.70;;;13.20;99.90;;;;;;5049421;28;20045;-79
2023/10/14 00:06:07;;;;;;;10.60;1.38;;;13.20;99.90;;;;;;5049603;28;20049;-78
2023/10/14 00:08:57;;;;;;;7.57;1.20;;;13.20;99.90;;;;;;5048980;28;20048;-79
2023/10/14 00:11:26;;;;;;;9.15;1.38;;;13.10;99.90;;;;;;5049571;28;20041;-79
2023/10/14 00:13:52;;;;;;;8.32;1.75;;;13.10;99.90;;;;;;5049788;28;20032;-79
2023/10/14 00:18:59;;;;;;;6.93;1.63;;;13.00;99.90;;;;;;5049570;28;20041;-79
2023/10/14 00:21:27;;;;;;;9.10;1.42;;;12.90;99.90;;;;;;5049616;28;20040;-79
2023/10/14 00:23:56;;;;;;;9.88;1.33;;;12.90;99.90;;;;;;5049103;28;20052;-79
2023/10/14 00:26:23;;;;;;;6.45;1.40;;;12.90;99.90;;;;;;5049089;28;20090;-79
2023/10/14 00:28:54;;;;;;;5.70;1.55;;;12.90;99.90;;;;;;5048809;28;20044;-79
2023/10/14 00:31:23;;;;;;;7.10;1.30;;;12.90;99.90;;;;;;5048493;28;20119;-79
2023/10/14 00:33:53;;;;;;;6.00;1.60;;;12.80;99.90;;;;;;5049129;28;20033;-79
2023/10/14 00:36:30;;;;;;;11.70;1.50;;;12.80;99.90;;;;;;5048795;28;20041;-79
2023/10/14 00:39:00;;;;;;;9.00;1.42;;;12.70;99.90;;;;;;5050075;28;20052;-78
2023/10/14 00:41:27;;;;;;;9.30;1.40;;;12.60;99.90;;;;;;5048354;28;20083;-79
2023/10/14 00:43:56;;;;;;;10.88;1.23;;;12.70;99.90;;;;;;5032431;28;20410;-78
2023/10/14 00:46:23;;;;;;;9.93;1.60;;;12.60;99.90;;;;;;5048803;28;20116;-78
2023/10/14 00:48:51;;;;;;;6.82;1.42;;;12.60;99.90;;;;;;5048693;28;20045;-79
2023/10/14 00:51:19;;;;;;;9.77;2.10;;;12.50;99.90;;;;;;5032463;28;20033;-79
2023/10/14 00:53:52;;;;;;;8.40;1.80;;;12.50;99.90;;;;;;5048010;28;20083;-78
2023/10/14 00:56:27;;;;;;;12.15;1.85;;;12.40;99.90;;;;;;5048715;28;20076;-78
2023/10/14 00:58:58;;;;;;;9.82;1.92;;;12.40;99.90;;;;;;5047366;28;20072;-79
2023/10/14 01:01:50;;;;;;;5.93;1.25;;;12.30;99.90;;;;;;5048488;28;20060;-78
2023/10/14 01:04:18;;;;;;;10.27;1.30;;;12.20;99.90;;;;;;5045732;28;20067;-78
2023/10/14 01:12:16;;;;;;;6.47;1.40;;;12.10;99.90;;;;;;5045881;28;20037;-78
2023/10/14 01:14:58;;;;;;;11.77;1.98;;;12.00;99.90;;;;;;5049043;28;20120;-79
2023/10/14 01:17:29;;;;;;;9.25;1.70;;;12.00;99.90;;;;;;5048301;28;20116;-78
2023/10/14 01:20:00;;;;;;;9.57;1.92;;;11.90;99.90;;;;;;5046214;28;20508;-79
2023/10/14 01:22:27;;;;;;;5.78;1.60;;;11.90;99.90;;;;;;5052244;28;20044;-79
2023/10/14 01:24:55;;;;;;;9.88;1.70;;;11.80;99.90;;;;;;5052072;28;20033;-79
2023/10/14 01:27:25;;;;;;;9.43;1.77;;;11.80;99.90;;;;;;5052420;28;20134;-79
2023/10/14 01:29:51;;;;;;;8.52;1.50;;;11.80;99.90;;;;;;5051692;28;20052;-79
2023/10/14 01:32:23;;;;;;;7.30;1.98;;;11.70;99.90;;;;;;5052243;28;20037;-79
2023/10/14 01:34:55;;;;;;;10.10;1.80;;;11.70;99.90;;;;;;5052180;28;20115;-79
2023/10/14 01:37:21;;;;;;;9.65;1.52;;;11.70;99.90;;;;;;5051965;28;20037;-79
2023/10/14 01:39:56;;;;;;;10.20;1.80;;;11.60;99.90;;;;;;5051462;28;20431;-79
2023/10/14 01:42:22;;;;;;;9.93;1.70;;;11.50;99.90;;;;;;5051970;28;20623;-78
2023/10/14 01:44:53;;;;;;;7.15;1.75;;;11.50;99.90;;;;;;5051797;28;20041;-79
2023/10/14 01:47:19;;;;;;;9.18;1.50;;;11.40;99.90;;;;;;5051986;28;20047;-79
2023/10/14 01:49:44;;;;;;;8.57;1.48;;;11.40;99.90;;;;;;5051871;28;20032;-80
2023/10/14 01:52:14;;;;;;;6.28;1.92;;;11.40;99.90;;;;;;5052404;28;20041;-79
2023/10/14 01:54:39;;;;;;;9.27;1.77;;;11.40;99.90;;;;;;5051926;28;20115;-79
2023/10/14 01:57:11;;;;;;;10.80;2.05;;;11.30;99.90;;;;;;5052135;28;20524;-79
2023/10/14 01:59:39;;;;;;;6.47;1.50;;;11.30;99.90;;;;;;5051657;28;20619;-79
2023/10/14 02:02:05;;;;;;;14.93;2.13;;;11.20;99.90;;;;;;5052260;28;20523;-79
2023/10/14 02:04:31;;;;;;;7.70;1.67;;;11.20;99.90;;;;;;5035881;28;20033;-80
2023/10/14 02:10:03;;;;;;;5.93;1.33;;;11.20;99.90;;;;;;5014001;28;20045;-80
2023/10/14 02:12:28;;;;;;;5.78;1.30;;;11.10;99.90;;;;;;5006467;28;20044;-79
2023/10/14 02:14:57;;;;;;;10.75;1.52;;;11.10;99.90;;;;;;5030771;28;20049;-79
2023/10/14 02:17:24;;;;;;;12.60;1.60;;;11.10;99.90;;;;;;5051641;28;20406;-79
2023/10/14 02:19:51;;;;;;;9.30;1.83;;;11.10;99.90;;;;;;5050891;28;20043;-79
2023/10/14 02:22:22;;;;;;;7.72;1.63;;;11.00;99.90;;;;;;5048618;28;20036;-79
2023/10/14 02:24:48;;;;;;;9.35;1.50;;;11.00;99.90;;;;;;5051365;28;20055;-80
2023/10/14 02:27:14;;;;;;;9.15;1.63;;;11.00;99.90;;;;;;5051171;28;20496;-79
2023/10/14 02:29:45;;;;;;;7.97;1.55;;;11.00;99.90;;;;;;5050267;28;20057;-80
2023/10/14 02:32:12;;;;;;;10.93;2.03;;;10.90;99.90;;;;;;5050947;28;20557;-79
2023/10/14 02:34:38;;;;;;;10.82;1.90;;;10.90;99.90;;;;;;5034451;28;20045;-79
2023/10/14 02:37:06;;;;;;;8.25;1.45;;;10.90;99.90;;;;;;5050830;28;20562;-79
2023/10/14 02:39:31;;;;;;;7.05;1.50;;;10.90;99.90;;;;;;5050720;28;20037;-79
2023/10/14 02:42:02;;;;;;;8.05;1.48;;;10.80;99.90;;;;;;5051513;28;20470;-80
2023/10/14 02:44:30;;;;;;;7.85;1.50;;;10.80;99.90;;;;;;5051191;28;20037;-79
2023/10/14 02:47:01;;;;;;;6.03;1.45;;;10.80;99.90;;;;;;5045302;28;20112;-79
2023/10/14 02:49:27;;;;;;;10.10;1.55;;;10.80;99.90;;;;;;5050434;28;20037;-80
2023/10/14 02:51:57;;;;;;;7.88;1.50;;;10.80;99.90;;;;;;5050469;28;20378;-79
2023/10/14 02:54:28;;;;;;;13.48;2.20;;;10.80;99.90;;;;;;5050636;28;20048;-79
2023/10/14 02:59:23;;;;;;;12.38;1.48;;;10.80;99.90;;;;;;5050741;28;20122;-80
2023/10/14 03:02:10;;;;;;;7.85;1.40;;;10.80;99.90;;;;;;5050822;28;20039;-79
2023/10/14 03:12:42;;;;;;;13.98;1.50;;;10.80;99.90;;;;;;5042625;28;20057;-79
2023/10/14 03:15:20;;;;;;;9.25;1.60;;;10.70;99.90;;;;;;5050389;28;20049;-80
2023/10/14 03:17:58;;;;;;;8.55;1.65;;;10.70;99.90;;;;;;5051053;28;20401;-79
2023/10/14 03:20:35;;;;;;;5.53;1.30;;;10.60;99.90;;;;;;5049719;28;20037;-80
2023/10/14 03:23:23;;;;;;;10.52;1.42;;;10.70;99.90;;;;;;5049994;28;20045;-80
2023/10/14 03:25:53;;;;;;;5.72;1.35;;;10.60;99.90;;;;;;5050084;28;20041;-80
2023/10/14 03:28:21;;;;;;;10.70;1.52;;;10.60;99.90;;;;;;5049960;28;20087;-80
2023/10/14 03:30:55;;;;;;;7.05;1.45;;;10.60;99.90;;;;;;5049714;28;20040;-80
2023/10/14 03:33:22;;;;;;;9.40;1.70;;;10.50;99.90;;;;;;5047565;28;20492;-79
2023/10/14 03:35:56;;;;;;;9.10;1.67;;;10.50;99.90;;;;;;5049953;28;20044;-79
2023/10/14 03:38:33;;;;;;;10.13;1.75;;;10.50;99.90;;;;;;5049732;28;20416;-79
2023/10/14 03:41:03;;;;;;;9.80;1.85;;;10.50;99.90;;;;;;5043494;28;20098;-79
2023/10/14 03:46:23;;;;;;;10.75;1.80;;;10.50;99.90;;;;;;5050284;28;20480;-80
2023/10/14 03:48:54;;;;;;;5.90;1.25;;;10.50;99.90;;;;;;5048715;28;20554;-79
2023/10/14 03:51:24;;;;;;;7.75;1.15;;;10.50;99.90;;;;;;5049755;28;20040;-80
2023/10/14 03:53:57;;;;;;;9.23;1.30;;;10.50;99.90;;;;;;5033335;28;20041;-79
2023/10/14 03:56:27;;;;;;;5.15;1.27;;;10.50;99.90;;;;;;5050454;28;20059;-80
2023/10/14 03:58:57;;;;;;;9.07;1.50;;;10.50;99.90;;;;;;5043187;28;20087;-80
2023/10/14 04:01:43;;;;;;;9.07;1.23;;;10.50;99.90;;;;;;5049691;28;20041;-80
2023/10/14 04:04:18;;;;;;;8.40;1.30;;;10.40;99.90;;;;;;5045967;28;20056;-80
2023/10/14 04:09:39;;;;;;;7.57;1.40;;;10.50;99.90;;;;;;5049511;28;20049;-80
2023/10/14 04:12:09;;;;;;;13.82;2.03;;;10.40;99.90;;;;;;5032858;28;20029;-80
2023/10/14 04:14:36;;;;;;;8.43;1.50;;;10.40;99.90;;;;;;5050065;28;20069;-79
2023/10/14 04:17:19;;;;;;;8.98;1.67;;;10.40;99.90;;;;;;5049423;28;20124;-79
2023/10/14 04:19:54;;;;;;;11.77;1.90;;;10.40;99.90;;;;;;5049315;28;20055;-79
2023/10/14 04:22:34;;;;;;;7.80;1.45;;;10.40;99.90;;;;;;5049250;28;20036;-80
2023/10/14 04:30:21;;;;;;;12.55;1.50;;;10.20;99.90;;;;;;5049152;28;20048;-80
2023/10/14 04:35:25;;;;;;;10.43;2.50;;;10.20;99.90;;;;;;5049596;28;20041;-79
2023/10/14 04:37:52;;;;;;;7.05;1.50;;;10.20;99.90;;;;;;5049477;28;20472;-79
2023/10/14 04:40:53;;;;;;;10.40;2.00;;;10.20;99.90;;;;;;5049474;28;20443;-80
2023/10/14 04:43:19;;;;;;;8.73;1.92;;;10.20;99.90;;;;;;5047025;28;20056;-79
2023/10/14 04:45:52;;;;;;;8.50;1.50;;;10.10;99.90;;;;;;5049280;28;20124;-80
2023/10/14 04:48:27;;;;;;;10.40;1.58;;;10.10;99.90;;;;;;5049103;28;20056;-80
2023/10/14 04:51:00;;;;;;;10.50;1.40;;;10.10;99.90;;;;;;5032721;28;20124;-80
2023/10/14 04:53:26;;;;;;;11.35;1.67;;;10.10;99.90;;;;;;5051314;28;20033;-80
2023/10/14 04:55:53;;;;;;;8.07;1.50;;;10.10;99.90;;;;;;5053278;28;20090;-79
2023/10/14 04:58:32;;;;;;;10.18;1.55;;;10.10;99.90;;;;;;5053078;28;20049;-80
2023/10/14 05:01:00;;;;;;;12.63;2.03;;;10.10;99.90;;;;;;5053310;28;20094;-80
2023/10/14 05:03:34;;;;;;;10.63;1.60;;;10.00;99.90;;;;;;5052894;28;20045;-79
2023/10/14 05:08:49;;;;;;;9.02;1.48;;;10.00;99.90;;;;;;5052343;28;20497;-79
2023/10/14 05:11:18;;;;;;;8.85;1.65;;;10.00;99.90;;;;;;5053441;28;20068;-79
2023/10/14 05:13:46;;;;;;;11.98;1.67;;;9.90;99.90;;;;;;5052505;28;20055;-79
2023/10/14 05:16:21;;;;;;;13.20;1.52;;;9.90;99.90;;;;;;5052665;28;20585;-79
2023/10/14 05:19:00;;;;;;;9.70;1.52;;;9.90;99.90;;;;;;5052575;28;20064;-79
2023/10/14 05:21:35;;;;;;;11.02;1.50;;;9.90;99.90;;;;;;5053076;28;20049;-80
2023/10/14 05:24:02;;;;;;;8.32;1.40;;;9.80;99.90;;;;;;5050026;28;20040;-79
2023/10/14 05:26:35;;;;;;;9.73;1.55;;;9.80;99.90;;;;;;5052273;28;20079;-79
2023/10/14 05:29:19;;;;;;;8.95;1.80;;;9.80;99.90;;;;;;5052029;28;20048;-79
2023/10/14 05:31:46;;;;;;;7.38;1.40;;;9.80;99.90;;;;;;5052735;28;20033;-79
2023/10/14 05:34:11;;;;;;;9.68;1.42;;;9.80;99.90;;;;;;5052954;28;20428;-79
2023/10/14 05:36:37;;;;;;;9.73;1.42;;;9.70;99.90;;;;;;5052362;28;20048;-80
2023/10/14 05:39:04;;;;;;;11.68;1.60;;;9.70;99.90;;;;;;5052078;28;20048;-80
2023/10/14 05:41:30;;;;;;;9.75;2.30;;;9.70;99.90;;;;;;5052327;28;20120;-79
2023/10/14 05:43:56;;;;;;;11.35;1.52;;;9.70;99.90;;;;;;5051918;28;20041;-79
2023/10/14 05:46:21;;;;;;;7.93;1.25;;;9.70;99.90;;;;;;5051773;28;20037;-80
2023/10/14 05:48:47;;;;;;;9.05;1.80;;;9.70;99.90;;;;;;5051889;28;20330;-80
2023/10/14 05:51:15;;;;;;;7.68;1.83;;;9.60;99.90;;;;;;5052415;28;20065;-79
2023/10/14 05:53:42;;;;;;;9.45;1.55;;;9.60;99.90;;;;;;5052258;28;20068;-79
2023/10/14 05:56:14;;;;;;;12.95;1.50;;;9.60;99.90;;;;;;5052314;28;20516;-79
2023/10/14 05:58:40;;;;;;;13.52;1.90;;;9.50;99.90;;;;;;5051469;28;20049;-80
2023/10/14 06:01:10;;;;;;;9.52;1.95;;;9.50;99.90;;;;;;5035313;28;20041;-79
2023/10/14 06:03:43;;;;;;;10.65;1.83;;;9.50;99.90;;;;;;5051406;28;20044;-79
2023/10/14 06:06:16;;;;;;;10.48;1.63;;;9.40;99.90;;;;;;5051080;28;20104;-79
2023/10/14 06:08:49;;;;;;;7.85;1.40;;;9.40;99.90;;;;;;5051272;28;20040;-79
2023/10/14 06:11:16;;;;;;;9.37;1.37;;;9.40;99.90;;;;;;5051816;28;20044;-79
2023/10/14 06:13:42;;;;;;;8.57;1.50;;;9.40;99.90;;;;;;5051466;28;20087;-79
2023/10/14 06:16:10;;;;;;;8.90;1.58;;;9.40;99.90;;;;;;5051414;28;20128;-79
2023/10/14 06:18:39;;;;;;;15.10;2.05;;;9.40;99.90;;;;;;5051087;28;20438;-80
2023/10/14 06:21:06;;;;;;;9.07;1.73;;;9.40;99.90;;;;;;5051489;28;20550;-79
2023/10/14 06:23:32;;;;;;;11.15;1.83;;;9.40;99.90;;;;;;5034646;28;20155;-79
2023/10/14 06:25:58;;;;;;;8.95;1.52;;;9.40;99.90;;;;;;5051394;28;20875;-79
2023/10/14 06:28:24;;;;;;;9.75;1.48;;;9.40;99.90;;;;;;5050881;28;20345;-79
2023/10/14 06:30:51;;;;;;;11.90;1.65;;;9.40;99.90;;;;;;5051170;28;20041;-79
2023/10/14 06:33:16;;;;;;;9.98;1.80;;;9.50;99.90;;;;;;5048863;28;20041;-79
2023/10/14 06:35:42;;;;;;;7.78;1.63;;;9.50;99.90;;;;;;5051403;28;20501;-79
2023/10/14 06:38:09;;;;;;;9.88;1.70;;;9.50;99.90;;;;;;5051345;28;20044;-79
2023/10/14 06:40:36;;;;;;;8.90;1.55;;;9.50;99.90;;;;;;5034467;28;20041;-79
2023/10/14 06:43:09;;;;;;;9.20;2.17;;;9.60;99.90;;;;;;5051154;28;20040;-80
2023/10/14 06:45:36;;;;;;;5.07;1.23;;;9.60;99.90;;;;;;5034500;28;20047;-79
2023/10/14 06:48:09;;;;;;;11.48;2.20;;;9.60;99.90;;;;;;5050944;28;20048;-79
2023/10/14 06:50:37;;;;;;;11.32;1.50;;;9.70;99.90;;;;;;5050629;28;20043;-80
2023/10/14 06:53:07;;;;;;;11.73;1.60;;;9.70;99.90;;;;;;5051011;28;20094;-79
2023/10/14 06:55:37;;;;;;;7.80;1.38;;;9.70;99.90;;;;;;5051152;28;20041;-79
2023/10/14 06:58:18;;;;;;;11.38;2.03;;;9.80;99.90;;;;;;5051057;28;20305;-79
2023/10/14 07:00:45;;;;;;;10.55;1.73;;;9.80;99.90;;;;;;5042473;28;20041;-79
2023/10/14 07:03:14;;;;;;;8.98;1.60;;;9.90;99.90;;;;;;5050940;28;20446;-79
2023/10/14 07:05:48;;;;;;;12.82;2.40;;;10.00;99.90;;;;;;5050141;28;20076;-78
2023/10/14 07:08:15;;;;;;;10.30;1.80;;;10.00;99.90;;;;;;5050029;28;20399;-79
2023/10/14 07:10:41;;;;;;;11.80;2.35;;;10.10;99.90;;;;;;5041011;28;20124;-78
2023/10/14 07:13:06;;;;;;;10.57;1.70;;;10.20;99.90;;;;;;5044600;28;20115;-79
2023/10/14 07:15:37;;;;;;;8.05;1.40;;;10.20;99.90;;;;;;5050374;28;20068;-78
2023/10/14 07:18:02;;;;;;;13.50;2.00;;;10.30;99.90;;;;;;5048042;28;20043;-79
2023/10/14 07:20:31;;;;;;;12.73;2.28;;;10.40;99.90;;;;;;5045336;28;20121;-79
2023/10/14 07:22:58;;;;;;;8.95;2.00;;;10.50;99.90;;;;;;5036196;28;20087;-78
2023/10/14 07:25:31;;;;;;;8.63;1.75;;;10.50;99.90;;;;;;5038412;28;20033;-78
2023/10/14 07:27:59;;;;;;;10.17;2.13;;;10.60;99.90;;;;;;5020077;28;20546;-79
2023/10/14 07:30:29;;;;;;;9.48;1.60;;;10.70;99.90;;;;;;5044396;28;20076;-79
2023/10/14 07:32:55;;;;;;;11.00;1.98;;;10.80;99.90;;;;;;5033485;28;20053;-78
2023/10/14 07:35:22;;;;;;;7.18;1.45;;;11.00;99.90;;;;;;5035626;28;20120;-78
2023/10/14 07:37:50;;;;;;;9.20;1.77;;;11.10;99.90;;;;;;5037595;28;20041;-78
2023/10/14 07:40:23;;;;;;;8.40;2.22;;;11.30;99.90;;;;;;5033821;28;20451;-79
2023/10/14 07:42:54;;;;;;;14.48;1.95;;;11.50;99.90;;;;;;5030953;28;20084;-78
2023/10/14 07:45:21;;;;;;;7.72;1.40;;;11.50;99.90;;;;;;5032216;28;20069;-78
2023/10/14 07:47:48;;;;;;;8.75;1.85;;;11.40;99.90;;;;;;5037073;28;20036;-78
2023/10/14 07:50:14;;;;;;;8.35;1.80;;;11.30;99.90;;;;;;5037477;28;20033;-78
2023/10/14 07:52:39;;;;;;;12.43;2.25;;;11.40;99.90;;;;;;5037673;28;20040;-78
2023/10/14 07:55:10;;;;;;;11.30;1.60;;;11.30;99.90;;;;;;5022960;28;20040;-79
2023/10/14 07:57:40;;;;;;;8.85;1.58;;;11.30;99.90;;;;;;5050158;28;20033;-77
2023/10/14 08:00:12;;;;;;;13.48;2.00;;;11.40;99.90;;;;;;5049454;28;20037;-78
2023/10/14 08:02:39;;;;;;;11.80;2.40;;;11.40;99.90;;;;;;5048988;28;20024;-78
2023/10/14 08:05:06;;;;;;;12.52;1.90;;;11.30;99.90;;;;;;5049466;28;20033;-77
2023/10/14 08:07:34;;;;;;;7.60;1.80;;;11.30;99.90;;;;;;5049500;28;20142;-77
2023/10/14 08:10:16;;;;;;;11.70;1.80;;;11.50;99.90;;;;;;5049418;28;20515;-77
2023/10/14 08:12:43;;;;;;;8.68;1.33;;;11.60;99.90;;;;;;5049178;28;20037;-78
2023/10/14 08:15:08;;;;;;;8.30;1.40;;;11.70;99.90;;;;;;5049439;28;20159;-78
2023/10/14 08:17:34;;;;;;;11.95;1.90;;;11.90;99.90;;;;;;5049353;28;20115;-78
2023/10/14 08:19:59;;;;;;;10.55;1.77;;;11.90;99.90;;;;;;5049306;28;20041;-78
2023/10/14 08:22:25;;;;;;;10.85;2.05;;;12.00;99.90;;;;;;5049214;28;20037;-77
2023/10/14 08:24:50;;;;;;;7.32;1.67;;;12.10;99.90;;;;;;5049201;28;20032;-79
2023/10/14 08:27:16;;;;;;;10.75;2.20;;;12.20;99.90;;;;;;5049191;28;20056;-78
2023/10/14 08:29:42;;;;;;;8.20;1.48;;;12.30;99.90;;;;;;5052541;28;20033;-78
2023/10/14 08:32:07;;;;;;;9.73;1.92;;;12.30;99.90;;;;;;5053457;28;20535;-78
2023/10/14 08:34:33;;;;;;;7.05;1.17;;;12.40;99.90;;;;;;5053070;28;20451;-78
2023/10/14 08:36:58;;;;;;;9.65;1.48;;;12.50;99.90;;;;;;5053349;28;20466;-78
2023/10/14 08:39:24;;;;;;;9.18;1.90;;;12.50;99.90;;;;;;5053025;28;20527;-77
2023/10/14 08:41:54;;;;;;;8.48;1.63;;;12.60;99.90;;;;;;5053252;28;20041;-77
2023/10/14 08:44:26;;;;;;;9.82;1.98;;;12.60;99.90;;;;;;5053133;28;20076;-78
2023/10/14 08:46:52;;;;;;;11.15;1.42;;;12.60;99.90;;;;;;5052902;28;20041;-77
2023/10/14 08:49:23;;;;;;;7.95;1.35;;;12.70;99.90;;;;;;5036656;28;20048;-78
2023/10/14 08:51:50;;;;;;;14.05;2.38;;;12.80;99.90;;;;;;5053008;28;20036;-77
2023/10/14 08:54:18;;;;;;;7.50;1.40;;;12.80;99.90;;;;;;5053197;28;20044;-77
2023/10/14 08:56:45;;;;;;;11.15;2.45;;;12.90;99.90;;;;;;5053106;28;20052;-77
2023/10/14 08:59:12;;;;;;;10.95;1.92;;;13.00;99.90;;;;;;5052150;28;20102;-78
2023/10/14 09:01:38;;;;;;;6.55;1.52;;;13.10;99.90;;;;;;5052483;28;20071;-77
2023/10/14 09:04:03;;;;;;;5.72;1.10;;;13.20;99.90;;;;;;5052488;28;20124;-77
2023/10/14 09:06:29;;;;;;;13.68;2.00;;;13.20;99.90;;;;;;5051438;28;20044;-77
2023/10/14 09:08:55;;;;;;;7.70;1.40;;;13.10;99.90;;;;;;5045822;28;20037;-77
2023/10/14 09:11:34;;;;;;;9.73;2.13;;;13.00;99.90;;;;;;5052507;28;20033;-76
2023/10/14 09:14:10;;;;;;;7.03;1.75;;;13.10;99.90;;;;;;5052079;28;20419;-76
2023/10/14 09:16:36;;;;;;;6.75;1.50;;;13.20;99.90;;;;;;5052718;28;20455;-77
2023/10/14 09:19:05;;;;;;;6.93;1.88;;;13.50;99.90;;;;;;5051817;28;20041;-77
2023/10/14 09:21:32;;;;;;;7.78;1.98;;;13.60;99.90;;;;;;5052552;28;20531;-76
2023/10/14 09:24:07;;;;;;;7.10;1.55;;;13.60;99.90;;;;;;5051870;28;20041;-76
2023/10/14 09:26:38;;;;;;;7.95;1.65;;;13.50;99.90;;;;;;5052342;28;20041;-76
2023/10/14 09:29:06;;;;;;;11.20;1.65;;;13.50;99.90;;;;;;5034748;28;20037;-77
2023/10/14 09:31:36;;;;;;;15.23;2.80;;;13.50;99.90;;;;;;5051534;28;20099;-77
2023/10/14 09:34:02;;;;;;;10.73;2.33;;;13.60;99.90;;;;;;5052350;28;20057;-77
2023/10/14 09:36:33;;;;;;;11.73;2.00;;;13.60;99.90;;;;;;5052132;28;20068;-77
2023/10/14 09:39:00;;;;;;;11.75;1.98;;;13.60;99.90;;;;;;5051349;28;20045;-77
2023/10/14 09:41:28;;;;;;;13.57;2.25;;;13.50;99.90;;;;;;5051323;28;20111;-78
2023/10/14 09:43:54;;;;;;;10.00;2.00;;;13.50;99.90;;;;;;5052469;28;20476;-77
2023/10/14 09:46:21;;;;;;;7.82;1.75;;;13.50;99.90;;;;;;5051933;28;20527;-76
2023/10/14 09:48:50;;;;;;;12.05;1.80;;;13.60;99.90;;;;;;5022309;28;20033;-76
2023/10/14 09:51:16;;;;;;;10.80;1.90;;;13.60;99.90;;;;;;5052533;28;20040;-76
2023/10/14 09:53:48;;;;;;;8.88;1.80;;;13.50;99.90;;;;;;5051503;28;20063;-77
2023/10/14 09:56:14;;;;;;;11.90;2.08;;;13.40;99.90;;;;;;5051507;28;20072;-76
2023/10/14 09:58:41;;;;;;;9.57;1.58;;;13.20;99.90;;;;;;5051364;28;20075;-77
2023/10/14 10:01:11;;;;;;;9.65;1.20;;;13.20;99.90;;;;;;5051544;28;20099;-76
2023/10/14 10:03:50;;;;;;;11.82;2.00;;;13.10;99.90;;;;;;5051328;28;20097;-76
2023/10/14 10:06:20;;;;;;;9.35;1.83;;;13.10;99.90;;;;;;5051531;28;20048;-76
2023/10/14 10:09:04;;;;;;;9.80;1.30;;;13.10;99.90;;;;;;5051531;28;20040;-77
2023/10/14 10:11:33;;;;;;;;;;;13.10;99.90;;;;;;5052262;28;20040;-78
2023/10/14 10:13:59;;;;;;;4.07;1.42;;;12.90;99.90;;;;;;5051730;28;19948;-76
2023/10/14 10:16:31;;;;;;;8.63;1.20;;;12.70;99.90;;;;;;5051130;28;20033;-77
2023/10/14 10:18:58;;;;;;;6.03;1.30;;;12.60;99.90;;;;;;5050483;28;20044;-77
2023/10/14 10:21:40;;;;;;;6.13;1.58;;;12.60;99.90;;;;;;5044772;28;20045;-77
2023/10/14 10:24:38;;;;;;;6.57;1.90;;;12.70;99.90;;;;;;5031952;28;20128;-77
2023/10/14 10:27:03;;;;;;;5.40;1.08;;;12.80;99.90;;;;;;5044796;28;20448;-77
2023/10/14 10:29:43;;;;;;;3.28;0.80;;;12.90;99.90;;;;;;5020060;28;20041;-77
2023/10/14 10:32:20;;;;;;;4.80;0.90;;;13.10;99.90;;;;;;5037400;28;20049;-76
2023/10/14 10:35:05;;;;;;;7.00;0.80;;;13.20;99.90;;;;;;5032045;28;20049;-77
2023/10/14 10:37:53;;;;;;;4.38;0.80;;;13.40;99.90;;;;;;5037754;28;20397;-78
2023/10/14 10:40:27;;;;;;;6.22;1.25;;;13.40;99.90;;;;;;5034271;28;20120;-77
2023/10/14 10:43:06;;;;;;;4.40;1.10;;;13.50;99.90;;;;;;5040998;28;20052;-77
2023/10/14 10:45:35;;;;;;;4.70;0.82;;;13.60;99.90;;;;;;5041952;28;20451;-76
2023/10/14 10:48:04;;;;;;;6.13;1.15;;;13.60;99.90;;;;;;5036942;28;20393;-76
2023/10/14 10:50:38;;;;;;;6.63;1.05;;;13.70;99.90;;;;;;5040550;28;20043;-76
2023/10/14 10:53:07;;;;;;;5.13;1.20;;;13.70;99.90;;;;;;5036306;28;20112;-76
2023/10/14 10:55:42;;;;;;;6.38;1.15;;;13.80;99.90;;;;;;5041138;28;20049;-77
2023/10/14 10:58:11;;;;;;;5.82;1.30;;;13.90;99.90;;;;;;5037918;28;20045;-76
2023/10/14 11:00:38;;;;;;;7.90;1.30;;;14.10;99.90;;;;;;5036432;28;20348;-78
2023/10/14 11:03:05;;;;;;;6.95;1.80;;;14.30;99.90;;;;;;5035497;28;20516;-76
2023/10/14 11:05:33;;;;;;;7.95;1.35;;;14.60;99.90;;;;;;5038556;28;20049;-77
2023/10/14 11:08:00;;;;;;;13.25;1.55;;;15.00;99.90;;;;;;5034228;28;20042;-77
2023/10/14 11:10:28;;;;;;;11.60;1.88;;;15.20;99.90;;;;;;5035884;28;20037;-78
2023/10/14 11:13:00;;;;;;;7.60;1.40;;;15.20;99.90;;;;;;5040797;28;20075;-78
2023/10/14 11:15:31;;;;;;;9.35;1.55;;;15.20;99.90;;;;;;5038865;28;20595;-77
2023/10/14 11:17:58;;;;;;;7.15;2.08;;;14.70;99.90;;;;;;5040127;28;20044;-77
2023/10/14 11:20:31;;;;;;;15.85;2.55;;;14.40;99.90;;;;;;5032098;28;20048;-78
2023/10/14 11:22:58;;;;;;;10.63;1.83;;;14.10;99.90;;;;;;5039028;28;20052;-78
2023/10/14 11:25:25;;;;;;;10.38;2.28;;;13.80;99.90;;;;;;5036122;28;20114;-77
2023/10/14 11:27:52;;;;;;;8.93;2.05;;;13.60;99.90;;;;;;5039937;28;20045;-77
2023/10/14 11:30:20;;;;;;;13.27;2.20;;;13.50;99.90;;;;;;5046299;28;20033;-78
2023/10/14 11:32:50;;;;;;;8.07;2.03;;;13.50;99.90;;;;;;5033516;28;20120;-78
2023/10/14 11:35:21;;;;;;;11.35;1.50;;;13.50;99.90;;;;;;5045499;28;20040;-76
2023/10/14 11:38:00;;;;;;;8.50;1.70;;;13.30;99.90;;;;;;5033288;28;20045;-78
2023/10/14 11:40:53;;;;;;;10.52;2.03;;;13.20;99.90;;;;;;5044449;28;20110;-77
2023/10/14 11:43:21;;;;;;;9.98;1.98;;;13.00;99.90;;;;;;5038388;28;20048;-77
2023/10/14 11:45:47;;;;;;;10.57;2.40;;;12.90;99.90;;;;;;5037610;28;20044;-77
2023/10/14 11:48:26;;;;;;;12.77;2.25;;;12.80;99.90;;;;;;5035428;28;20033;-76
2023/10/14 11:50:59;;;;;;;14.50;2.33;;;12.70;99.90;;;;;;5036309;28;20048;-77
2023/10/14 11:53:29;;;;;;;8.00;1.75;;;12.80;99.90;;;;;;5042310;28;20040;-77
2023/10/14 11:56:03;;;;;;;9.77;2.17;;;13.00;99.90;;;;;;5041404;28;20550;-76
2023/10/14 11:58:31;;;;;;;10.57;2.20;;;13.30;99.90;;;;;;5033005;28;20060;-76
2023/10/14 12:00:57;;;;;;;6.70;1.52;;;13.60;99.90;;;;;;5034272;28;20404;-77
2023/10/14 12:03:27;;;;;;;13.32;2.00;;;13.90;99.90;;;;;;5034896;28;20080;-77
2023/10/14 12:05:59;;;;;;;15.13;2.40;;;14.20;99.90;;;;;;5023144;28;20045;-75
2023/10/14 12:08:30;;;;;;;8.57;1.90;;;14.50;99.90;;;;;;5032434;28;20037;-76
2023/10/14 12:10:58;;;;;;;10.02;1.88;;;14.70;99.90;;;;;;5033003;28;20052;-76
2023/10/14 12:13:25;;;;;;;9.18;2.05;;;14.60;99.90;;;;;;5018330;28;20030;-78
2023/10/14 12:15:51;;;;;;;10.57;2.50;;;14.40;99.90;;;;;;5037289;28;20044;-76
2023/10/14 12:18:17;;;;;;;9.27;1.90;;;14.30;99.90;;;;;;5036234;28;20124;-77
2023/10/14 12:20:46;;;;;;;9.65;2.10;;;14.00;99.90;;;;;;5043614;28;20037;-77
2023/10/14 12:23:18;;;;;;;8.80;2.00;;;13.70;99.90;;;;;;5030068;28;20412;-77
2023/10/14 12:25:46;;;;;;;12.88;2.08;;;13.50;99.90;;;;;;5034050;28;20033;-78
2023/10/14 12:28:17;;;;;;;12.52;2.15;;;13.30;99.90;;;;;;5034694;28;20158;-77
2023/10/14 12:30:43;;;;;;;9.20;1.75;;;13.20;99.90;;;;;;5039504;28;20119;-76
2023/10/14 12:33:18;;;;;;;8.48;1.90;;;13.40;99.90;;;;;;5044375;28;20535;-77
2023/10/14 12:35:53;;;;;;;8.10;1.70;;;13.50;99.90;;;;;;5042638;28;20051;-77
2023/10/14 12:38:22;;;;;;;10.00;2.53;;;13.70;99.90;;;;;;5033283;28;20051;-77
2023/10/14 12:40:49;;;;;;;9.95;1.83;;;13.90;99.90;;;;;;5039949;28;20071;-77
2023/10/14 12:43:36;;;;;;;8.13;1.48;;;13.90;99.90;;;;;;5039565;28;20045;-78
2023/10/14 12:48:46;;;;;;;9.15;2.13;;;14.10;99.90;;;;;;5049276;28;20114;-78
2023/10/14 12:51:14;;;;;;;7.50;2.30;;;14.10;99.90;;;;;;5049349;28;20064;-78
2023/10/14 12:53:45;;;;;;;8.48;1.77;;;14.10;99.90;;;;;;5049276;28;20033;-78
2023/10/14 12:56:13;;;;;;;7.10;1.38;;;14.10;99.90;;;;;;5050416;28;20037;-81
2023/10/14 12:58:42;;;;;;;10.20;2.28;;;13.80;99.90;;;;;;5033966;28;20395;-82
2023/10/14 13:01:16;;;;;;;9.75;1.80;;;13.70;99.90;;;;;;5050318;28;20056;-78
2023/10/14 13:03:46;;;;;;;7.10;1.60;;;13.80;99.90;;;;;;5050365;28;20045;-79
2023/10/14 13:06:13;;;;;;;10.13;1.75;;;13.80;99.90;;;;;;5049834;28;20049;-80
2023/10/14 13:08:39;;;;;;;7.63;1.70;;;13.40;99.90;;;;;;5049075;28;20036;-80
2023/10/14 13:11:05;;;;;;;5.93;1.35;;;12.40;99.90;;;;;;5049697;28;20037;-80
2023/10/14 13:13:31;;;;;;;8.00;2.08;;;11.70;99.90;;;;;;5049583;28;20099;-80
2023/10/14 13:15:56;;;;;;;8.00;1.77;;;11.30;99.90;;;;;;5053143;28;20041;-79
2023/10/14 13:18:24;;;;;;;7.10;1.88;;;11.20;99.90;;;;;;5053382;28;20044;-79
2023/10/14 13:20:49;;;;;;;8.60;2.03;;;11.30;99.90;;;;;;5045466;28;20059;-79
2023/10/14 13:23:15;;;;;;;9.90;1.50;;;11.40;99.90;;;;;;5053443;28;20420;-80
2023/10/14 13:25:41;;;;;;;9.82;2.35;;;11.10;99.90;;;;;;5054363;28;20128;-78
2023/10/14 13:28:08;;;;;;;7.07;1.52;;;10.90;99.90;;;;;;5054220;28;20036;-80
2023/10/14 13:30:35;;;;;;;8.02;1.70;;;10.90;99.90;;;;;;5037453;28;20432;-81
2023/10/14 13:33:01;;;;;;;7.55;1.42;;;10.90;99.90;;;;;;5054192;28;20123;-80
2023/10/14 13:35:27;;;;;;;9.32;1.95;;;11.00;99.90;;;;;;5055277;28;20069;-80
2023/10/14 13:37:54;;;;;;;9.15;1.60;;;11.10;99.90;;;;;;5054391;28;20094;-79
2023/10/14 13:40:23;;;;;;;10.23;1.75;;;11.20;99.90;;;;;;5053760;28;20045;-80